Gambrill, Iowa
Current Conditions -  °F | °C
As of 3:52 PM on Thursday 23 Oct 2014 (Local Time) from KDVN Reporting Station
Overcast Overcast  
Wind Chill: 59°   Ceiling: 2200
Heat Index: 59°   Visibility: 10mi
Dew Point: 46°   Wind: 12mph
Humidity: 62%   Direction: 210°SSW
Pressure: 30.03"   Gusts: NA
Location:  41.7317°N, 90.5411°W
Report Text: KDVN 232052Z AUTO 21010KT 10SM BKN022 OVC049 15/08 A3003 RMK AO2 SLP172 T01500078 56019 TSNO
Loading
Personal Weather Stations






























Interactive Weather Map
Tropical Storm Tracking
New forecast layout! Learn more

10-Day Weather Forecast

Advertisements
Track Severe Weather on mobile